Time;durP1;ratioP1;P1;durP2;ratioP2;P2;SDS_P1;SDS_P2;PMS_P1;PMS_P2;Temp;Humidity;BMP_temperature;BMP_pressure;BME280_temperature;BME280_humidity;BME280_pressure;Samples;Min_cycle;Max_cycle;Signal;HPM_P1;HPM_P2
2022/05/02 00:01:01;;;;;;;0.10;0.10;;;;;;;15.22;55.03;99942.06;6221179;23;20008;-71
2022/05/02 00:03:26;;;;;;;0.20;0.20;;;;;;;15.16;55.71;99938.84;6221445;23;20361;-71
2022/05/02 00:05:52;;;;;;;0.17;0.17;;;;;;;15.08;56.25;99936.47;6220736;23;20468;-71
2022/05/02 00:08:17;;;;;;;0.20;0.20;;;;;;;15.07;56.23;99935.63;6221688;23;20012;-71
2022/05/02 00:10:44;;;;;;;0.20;0.20;;;;;;;14.81;57.20;99888.41;6221045;23;20447;-71
2022/05/02 00:13:10;;;;;;;0.20;0.20;;;;;;;15.07;57.23;99935.63;6221391;23;20423;-71
2022/05/02 00:15:37;;;;;;;0.10;0.10;;;;;;;14.99;57.62;99928.44;6220614;23;20008;-71
2022/05/02 00:18:04;;;;;;;0.10;0.10;;;;;;;14.96;57.56;99922.81;6247796;23;20004;-71
2022/05/02 00:20:36;;;;;;;0.20;0.20;;;;;;;14.95;57.12;99927.63;6221704;23;20420;-71
2022/05/02 00:23:05;;;;;;;0.20;0.20;;;;;;;14.89;57.18;99920.81;6221280;23;20437;-71
2022/05/02 00:25:31;;;;;;;0.20;0.20;;;;;;;14.92;56.92;99922.84;6220533;23;20008;-71
2022/05/02 00:27:58;;;;;;;0.20;0.20;;;;;;;14.86;56.87;99921.59;6221223;23;20087;-71
2022/05/02 00:30:24;;;;;;;0.20;0.20;;;;;;;14.74;57.10;99927.59;6220301;23;20016;-72
2022/05/02 00:32:50;;;;;;;0.20;0.20;;;;;;;14.71;57.56;99926.41;6221126;23;20102;-71
2022/05/02 00:35:16;;;;;;;0.20;0.20;;;;;;;14.70;57.30;99921.19;6220799;23;20150;-71
2022/05/02 00:37:42;;;;;;;0.20;0.20;;;;;;;14.64;57.56;99924.38;6220354;23;20004;-71
2022/05/02 00:40:10;;;;;;;0.20;0.20;;;;;;;14.67;57.23;99917.19;6195889;23;20009;-71
2022/05/02 00:42:39;;;;;;;0.20;0.20;;;;;;;14.64;58.23;99913.16;6220052;23;20014;-72
2022/05/02 00:45:11;;;;;;;0.20;0.20;;;;;;;14.61;58.59;99907.59;6220379;23;20008;-71
2022/05/02 00:47:37;;;;;;;0.20;0.20;;;;;;;14.78;57.99;99909.59;6220443;23;20035;-71
2022/05/02 00:50:04;;;;;;;0.10;0.10;;;;;;;14.60;58.50;99909.59;6220693;23;20015;-70
2022/05/02 00:52:30;;;;;;;0.20;0.20;;;;;;;14.40;59.02;99914.69;6219942;23;20095;-70
2022/05/02 00:54:56;;;;;;;0.17;0.17;;;;;;;14.38;59.59;99899.47;6220302;23;20047;-71
2022/05/02 00:57:23;;;;;;;0.20;0.20;;;;;;;14.31;59.70;99905.88;6220215;23;20060;-71
2022/05/02 00:59:48;;;;;;;0.20;0.20;;;;;;;14.21;59.98;99894.63;6220568;23;20004;-71
2022/05/02 01:02:15;;;;;;;0.20;0.20;;;;;;;14.16;59.65;99882.63;6220150;23;20004;-71
2022/05/02 01:04:42;;;;;;;0.20;0.20;;;;;;;14.25;59.73;99901.06;6220628;23;20078;-71
2022/05/02 01:07:41;;;;;;;0.20;0.20;;;;;;;14.25;59.90;99896.25;6220882;23;20008;-71
2022/05/02 01:10:00;;;;;;;0.20;0.20;;;;;;;14.29;59.25;99890.69;6241657;23;20008;-71
2022/05/02 01:12:26;;;;;;;0.20;0.20;;;;;;;14.28;59.73;99892.69;6220030;23;20043;-71
2022/05/02 01:14:56;;;;;;;0.20;0.20;;;;;;;14.24;59.71;99886.25;6220085;23;20009;-71
2022/05/02 01:17:22;;;;;;;0.20;0.20;;;;;;;14.17;59.44;99872.25;6195152;23;20107;-71
2022/05/02 01:19:48;;;;;;;0.20;0.20;;;;;;;14.25;59.52;99890.66;6221149;23;20425;-71
2022/05/02 01:22:13;;;;;;;0.20;0.20;;;;;;;14.28;59.19;99886.28;6220026;23;20011;-71
2022/05/02 01:24:40;;;;;;;0.20;0.20;;;;;;;14.01;59.09;99830.63;6220034;23;20012;-71
2022/05/02 01:27:07;;;;;;;0.20;0.20;;;;;;;14.26;59.09;99885.84;6219931;23;20004;-71
2022/05/02 01:29:35;;;;;;;0.20;0.20;;;;;;;14.44;58.18;99869.13;6219820;23;20074;-71
2022/05/02 01:32:02;;;;;;;0.20;0.20;;;;;;;14.25;59.22;99876.66;6221045;23;20091;-71
2022/05/02 01:34:27;;;;;;;0.20;0.20;;;;;;;14.22;58.74;99866.28;6195409;23;20031;-71
2022/05/02 01:36:55;;;;;;;0.20;0.20;;;;;;;14.14;58.96;99873.84;6220147;23;20004;-71
2022/05/02 01:39:20;;;;;;;0.20;0.20;;;;;;;14.13;59.04;99866.63;6219859;23;20008;-71
2022/05/02 01:41:49;;;;;;;0.20;0.20;;;;;;;14.12;59.04;99864.25;6219848;23;20310;-71
2022/05/02 01:44:17;;;;;;;0.20;0.20;;;;;;;14.18;59.06;99861.88;6246333;23;20000;-71
2022/05/02 01:46:43;;;;;;;0.20;0.20;;;;;;;14.16;58.83;99860.25;6220474;23;20337;-71
2022/05/02 01:49:09;;;;;;;0.20;0.20;;;;;;;14.13;59.65;99863.84;6220514;23;20011;-71
2022/05/02 01:51:34;;;;;;;0.20;0.20;;;;;;;14.13;59.38;99863.84;6220499;23;20008;-71
2022/05/02 01:54:00;;;;;;;0.20;0.20;;;;;;;14.13;59.67;99849.84;6220522;23;20031;-71
2022/05/02 01:56:29;;;;;;;0.20;0.20;;;;;;;14.23;59.61;99850.28;6219708;23;20030;-71
2022/05/02 01:58:54;;;;;;;0.20;0.20;;;;;;;14.22;59.91;99855.09;6220049;23;20015;-71
2022/05/02 02:01:20;;;;;;;0.20;0.20;;;;;;;14.18;60.37;99851.47;6219800;23;20087;-71
2022/05/02 02:03:45;;;;;;;0.20;0.20;;;;;;;14.20;60.60;99854.66;6219575;23;20008;-71
2022/05/02 02:06:11;;;;;;;0.20;0.20;;;;;;;14.25;60.54;99850.69;6219780;23;20028;-71
2022/05/02 02:08:37;;;;;;;0.20;0.20;;;;;;;14.27;60.92;99854.69;6219745;23;20004;-70
2022/05/02 02:11:08;;;;;;;0.20;0.20;;;;;;;14.19;61.20;99847.47;6219647;23;20011;-71
2022/05/02 02:13:33;;;;;;;0.20;0.20;;;;;;;14.10;61.53;99850.63;6194869;23;20332;-71
2022/05/02 02:16:01;;;;;;;0.20;0.20;;;;;;;13.95;61.79;99850.97;6219903;23;20008;-71
2022/05/02 02:18:27;;;;;;;0.20;0.20;;;;;;;13.71;62.65;99855.28;6194765;23;20038;-71
2022/05/02 02:20:54;;;;;;;0.20;0.20;;;;;;;13.66;62.12;99852.84;6220293;23;20012;-71
2022/05/02 02:23:21;;;;;;;0.20;0.20;;;;;;;13.63;62.58;99851.63;6219310;23;20062;-71
2022/05/02 02:25:47;;;;;;;0.20;0.20;;;;;;;13.51;63.13;99843.59;6194812;23;20369;-71
2022/05/02 02:28:15;;;;;;;0.20;0.20;;;;;;;13.50;63.14;99844.78;6219963;23;20008;-71
2022/05/02 02:30:44;;;;;;;0.20;0.20;;;;;;;13.57;63.01;99842.81;6219682;23;20090;-71
2022/05/02 02:33:12;;;;;;;0.20;0.20;;;;;;;13.55;63.64;99842.41;6246516;23;20012;-71
2022/05/02 02:35:38;;;;;;;0.20;0.20;;;;;;;13.69;63.33;99838.91;6219596;23;20083;-71
2022/05/02 02:38:03;;;;;;;0.20;0.20;;;;;;;13.67;63.61;99843.28;6194475;23;20039;-71
2022/05/02 02:40:32;;;;;;;0.20;0.20;;;;;;;13.51;63.10;99813.63;6194550;23;20004;-71
2022/05/02 02:42:57;;;;;;;0.20;0.20;;;;;;;13.61;63.57;99829.66;6219545;23;20004;-71
2022/05/02 02:45:23;;;;;;;0.20;0.20;;;;;;;13.58;63.72;99836.06;6219922;23;20008;-71
2022/05/02 02:47:49;;;;;;;0.20;0.20;;;;;;;13.56;63.93;99821.66;6219549;23;20095;-71
2022/05/02 02:50:14;;;;;;;0.20;0.20;;;;;;;13.69;63.94;99836.09;6219696;23;20035;-70
2022/05/02 02:52:41;;;;;;;0.20;0.20;;;;;;;13.81;63.79;99829.38;6219822;23;20405;-70
2022/05/02 02:55:07;;;;;;;0.20;0.20;;;;;;;13.86;63.45;99817.81;6219859;23;20066;-70
2022/05/02 02:57:36;;;;;;;0.20;0.20;;;;;;;14.11;62.75;99823.44;6219646;23;20004;-70
2022/05/02 03:00:03;;;;;;;0.20;0.20;;;;;;;14.12;62.62;99825.88;6221308;23;20018;-70
2022/05/02 03:02:29;;;;;;;0.20;0.20;;;;;;;14.01;63.02;99815.81;6219932;23;20007;-70
2022/05/02 03:07:39;;;;;;;0.20;0.20;;;;;;;14.03;62.88;99825.44;6224056;23;20051;-70
2022/05/02 03:10:05;;;;;;;0.20;0.20;;;;;;;14.05;62.70;99819.44;6220227;23;20325;-70
2022/05/02 03:12:31;;;;;;;0.20;0.20;;;;;;;14.05;62.47;99817.44;6219460;23;20005;-70
2022/05/02 03:14:56;;;;;;;0.20;0.20;;;;;;;13.94;62.49;99824.22;6220182;23;20087;-71
2022/05/02 03:17:22;;;;;;;0.20;0.20;;;;;;;13.84;62.89;99815.38;6221574;23;20008;-70
2022/05/02 03:19:48;;;;;;;0.20;0.20;;;;;;;13.87;62.86;99816.59;6221857;23;20013;-70
2022/05/02 03:22:13;;;;;;;0.20;0.20;;;;;;;13.87;62.71;99822.19;6221538;23;20035;-70
2022/05/02 03:24:39;;;;;;;0.20;0.20;;;;;;;13.86;62.17;99809.41;6221163;23;20332;-70
2022/05/02 03:27:08;;;;;;;0.20;0.20;;;;;;;13.79;62.13;99810.16;6221853;23;20008;-70
2022/05/02 03:29:36;;;;;;;0.20;0.20;;;;;;;13.80;62.21;99809.00;6220778;23;20012;-70
2022/05/02 03:32:02;;;;;;;0.20;0.20;;;;;;;13.85;62.53;99813.41;6221513;23;20004;-70
2022/05/02 03:34:28;;;;;;;0.20;0.20;;;;;;;13.90;62.04;99813.00;6220965;23;20146;-70
2022/05/02 03:36:53;;;;;;;0.20;0.20;;;;;;;13.87;62.25;99816.59;6220962;23;20031;-71
2022/05/02 03:39:19;;;;;;;0.20;0.20;;;;;;;13.85;61.80;99808.63;6221666;23;20058;-70
2022/05/02 03:41:44;;;;;;;0.20;0.20;;;;;;;13.97;61.58;99807.44;6220945;23;20340;-70
2022/05/02 03:44:10;;;;;;;0.20;0.20;;;;;;;13.99;61.10;99802.25;6221001;23;20012;-70
2022/05/02 03:46:36;;;;;;;0.20;0.20;;;;;;;14.07;61.12;99809.47;6220888;23;20004;-70
2022/05/02 03:49:01;;;;;;;0.20;0.20;;;;;;;14.22;60.67;99807.53;6221648;23;20015;-70
2022/05/02 03:51:28;;;;;;;0.20;0.20;;;;;;;14.05;61.22;99803.47;6196239;23;20473;-70
2022/05/02 03:53:56;;;;;;;0.20;0.20;;;;;;;13.99;61.24;99812.63;6221275;23;20441;-70
2022/05/02 03:56:22;;;;;;;0.20;0.20;;;;;;;13.99;61.36;99805.03;6221139;23;20015;-70
2022/05/02 03:58:47;;;;;;;0.20;0.20;;;;;;;13.86;60.92;99793.44;6220995;23;20341;-70
2022/05/02 04:01:13;;;;;;;0.20;0.20;;;;;;;13.91;61.69;99814.63;6220803;23;20015;-70
2022/05/02 04:03:38;;;;;;;0.20;0.20;;;;;;;13.86;61.62;99812.22;6221423;23;20059;-70
2022/05/02 04:06:04;;;;;;;0.20;0.20;;;;;;;13.89;61.07;99803.81;6220671;23;20015;-70
2022/05/02 04:08:30;;;;;;;0.20;0.20;;;;;;;13.91;61.58;99809.03;6221356;23;20023;-70
2022/05/02 04:10:55;;;;;;;0.20;0.20;;;;;;;13.94;61.18;99808.22;6221095;23;20106;-70
2022/05/02 04:13:21;;;;;;;0.20;0.20;;;;;;;13.94;61.28;99808.22;6221150;23;20019;-70
2022/05/02 04:15:49;;;;;;;0.20;0.20;;;;;;;14.05;60.54;99808.25;6221034;23;20436;-70
2022/05/02 04:18:18;;;;;;;0.20;0.20;;;;;;;14.09;59.15;99797.88;6247563;23;20011;-70
2022/05/02 04:20:43;;;;;;;0.20;0.20;;;;;;;14.00;60.11;99803.03;6221073;23;20061;-70
2022/05/02 04:23:09;;;;;;;0.20;0.20;;;;;;;14.23;58.63;99785.94;6220557;23;20423;-70
2022/05/02 04:25:34;;;;;;;0.20;0.20;;;;;;;14.32;57.82;99797.53;6220582;23;20008;-69
2022/05/02 04:28:00;;;;;;;0.20;0.20;;;;;;;14.09;58.47;99798.69;6220783;23;20008;-70
2022/05/02 04:30:25;;;;;;;0.20;0.20;;;;;;;14.07;58.43;99789.91;6220267;23;20016;-69
2022/05/02 04:32:51;;;;;;;0.20;0.20;;;;;;;14.09;58.38;99809.88;6221259;23;20011;-70
2022/05/02 04:35:16;;;;;;;0.20;0.20;;;;;;;14.08;58.33;99797.09;6220883;23;20027;-70
2022/05/02 04:37:42;;;;;;;0.20;0.20;;;;;;;14.11;58.26;99813.09;6221148;23;20317;-70
2022/05/02 04:40:08;;;;;;;0.20;0.20;;;;;;;14.13;58.44;99815.47;6247367;23;20000;-70
2022/05/02 04:42:34;;;;;;;0.20;0.20;;;;;;;14.03;59.33;99808.66;6220436;23;20008;-70
2022/05/02 04:44:59;;;;;;;0.20;0.20;;;;;;;14.04;58.51;99813.06;6220770;23;20031;-70
2022/05/02 04:47:25;;;;;;;0.10;0.10;;;;;;;13.98;58.32;99803.44;6220287;23;20054;-70
2022/05/02 04:49:50;;;;;;;0.20;0.20;;;;;;;14.07;58.00;99806.69;6220581;23;20035;-70
2022/05/02 04:52:16;;;;;;;0.20;0.20;;;;;;;14.18;58.19;99811.50;6220690;23;20473;-70
2022/05/02 04:54:42;;;;;;;0.20;0.20;;;;;;;13.99;58.82;99810.63;6220349;23;20012;-70
2022/05/02 04:57:07;;;;;;;0.20;0.20;;;;;;;13.99;58.45;99810.63;6220228;23;20008;-70
2022/05/02 04:59:33;;;;;;;0.20;0.20;;;;;;;14.07;58.59;99811.47;6220626;23;20011;-70
2022/05/02 05:01:58;;;;;;;0.20;0.20;;;;;;;14.15;57.77;99818.69;6220595;23;20046;-70
2022/05/02 05:04:25;;;;;;;0.20;0.20;;;;;;;14.20;57.95;99809.91;6220102;23;20004;-70
2022/05/02 05:06:51;;;;;;;0.20;0.20;;;;;;;14.32;57.65;99817.09;6220361;23;20008;-70
2022/05/02 05:09:16;;;;;;;0.20;0.20;;;;;;;14.17;57.83;99810.72;6220637;23;20011;-70
2022/05/02 05:12:32;;;;;;;0.20;0.20;;;;;;;14.21;58.20;99808.69;6220494;23;20428;-70
2022/05/02 05:18:30;;;;;;;0.20;0.20;;;;;;;14.31;57.60;99809.91;6246836;23;20051;-69
2022/05/02 05:21:14;;;;;;;0.20;0.20;;;;;;;14.36;57.60;99806.72;6220015;23;20091;-70
2022/05/02 05:24:20;;;;;;;0.20;0.20;;;;;;;14.32;57.16;99800.31;6220738;23;20016;-70
2022/05/02 05:26:57;;;;;;;0.20;0.20;;;;;;;14.54;56.87;99812.38;6170124;23;20073;-70
2022/05/02 05:29:42;;;;;;;0.20;0.20;;;;;;;14.65;56.29;99811.19;6219893;22;20475;-70
2022/05/02 05:32:32;;;;;;;0.20;0.20;;;;;;;14.79;56.14;99818.00;6220041;23;20400;-70
2022/05/02 05:35:04;;;;;;;0.20;0.20;;;;;;;14.70;56.39;99804.41;6220486;23;20329;-70
2022/05/02 05:37:41;;;;;;;0.20;0.20;;;;;;;14.86;56.21;99812.38;6220141;23;20008;-70
2022/05/02 05:40:38;;;;;;;0.10;0.10;;;;;;;14.88;56.26;99798.78;6219799;23;20062;-70
2022/05/02 05:43:22;;;;;;;0.20;0.20;;;;;;;14.80;56.20;99813.97;6219780;23;20024;-70
2022/05/02 05:46:03;;;;;;;0.20;0.20;;;;;;;14.79;55.64;99812.38;6220604;23;20004;-70
2022/05/02 05:49:00;;;;;;;0.20;0.20;;;;;;;14.47;55.56;99815.13;6220314;23;20011;-70
2022/05/02 05:51:38;;;;;;;0.20;0.20;;;;;;;14.65;55.02;99807.59;6219678;23;20447;-70
2022/05/02 05:54:31;;;;;;;0.20;0.20;;;;;;;14.87;54.96;99814.78;6219597;23;20008;-70
2022/05/02 05:57:06;;;;;;;0.20;0.20;;;;;;;14.90;54.69;99815.97;6219514;23;20004;-70
2022/05/02 06:00:04;;;;;;;0.20;0.20;;;;;;;15.09;53.54;99809.97;6219488;23;20340;-70
2022/05/02 06:02:54;;;;;;;0.20;0.20;;;;;;;15.13;52.68;99810.78;6220049;23;20087;-70
2022/05/02 06:05:20;;;;;;;0.20;0.20;;;;;;;15.25;52.64;99811.53;6219428;23;20162;-70
2022/05/02 06:07:47;;;;;;;0.10;0.10;;;;;;;15.28;51.98;99807.91;6219758;23;20035;-70
2022/05/02 06:10:16;;;;;;;0.20;0.20;;;;;;;15.51;51.81;99811.09;6219791;23;20065;-70
2022/05/02 06:12:44;;;;;;;0.20;0.20;;;;;;;15.77;51.35;99815.44;6219729;23;20444;-70
2022/05/02 06:20:45;;;;;;;0.20;0.20;;;;;;;17.07;48.33;99805.72;6245942;23;20384;-70
2022/05/02 06:23:13;;;;;;;0.15;0.15;;;;;;;18.18;46.66;99812.91;6219320;23;20062;-70
2022/05/02 06:25:40;;;;;;;0.20;0.20;;;;;;;19.07;43.74;99792.59;6219243;23;20004;-70
2022/05/02 06:28:07;;;;;;;0.20;0.20;;;;;;;19.82;41.40;99808.09;6219525;23;20008;-70
2022/05/02 06:30:36;;;;;;;0.20;0.20;;;;;;;20.07;37.74;99787.00;6219232;23;20449;-70
2022/05/02 06:33:10;;;;;;;0.10;0.10;;;;;;;20.20;38.84;99810.50;6220068;23;20051;-70
2022/05/02 06:35:56;;;;;;;0.20;0.20;;;;;;;20.72;38.46;99801.25;6219901;23;20035;-70
2022/05/02 06:38:52;;;;;;;0.20;0.20;;;;;;;21.46;37.28;99809.03;6219142;23;20000;-70
2022/05/02 06:41:17;;;;;;;0.10;0.10;;;;;;;22.05;34.97;99807.78;6219080;23;20404;-70
2022/05/02 06:43:56;;;;;;;0.20;0.20;;;;;;;22.46;34.40;99809.75;6219382;23;20008;-70
2022/05/02 06:46:31;;;;;;;0.10;0.10;;;;;;;22.23;34.12;99810.09;6219795;23;20091;-71
2022/05/02 06:49:08;;;;;;;0.10;0.10;;;;;;;22.19;34.58;99815.06;6219132;23;20005;-71
2022/05/02 06:51:40;;;;;;;0.10;0.10;;;;;;;22.55;34.51;99813.97;6197405;23;20032;-70
2022/05/02 06:54:17;;;;;;;0.20;0.20;;;;;;;22.35;34.85;99823.47;6221650;23;20031;-70
2022/05/02 06:56:43;;;;;;;0.20;0.20;;;;;;;22.13;35.34;99799.88;6221073;23;20087;-70
2022/05/02 06:59:16;;;;;;;0.10;0.10;;;;;;;21.71;35.96;99808.34;6221169;23;20043;-71
2022/05/02 07:01:57;;;;;;;0.15;0.15;;;;;;;21.80;36.57;99811.34;6221134;23;20089;-71
2022/05/02 07:04:42;;;;;;;0.20;0.20;;;;;;;21.38;37.90;99814.13;6220737;23;20020;-71
2022/05/02 07:07:42;;;;;;;0.20;0.20;;;;;;;22.56;35.73;99816.31;6248050;23;20010;-71
2022/05/02 07:10:35;;;;;;;0.13;0.13;;;;;;;22.53;35.34;99820.09;6222014;23;20034;-70
2022/05/02 07:13:11;;;;;;;0.10;0.10;;;;;;;23.45;32.52;99829.59;6195690;23;20012;-71
2022/05/02 07:15:49;;;;;;;0.10;0.10;;;;;;;22.94;33.25;99807.81;6221530;23;20008;-71
2022/05/02 07:18:36;;;;;;;0.10;0.10;;;;;;;23.54;32.93;99804.09;6220770;23;20032;-71
2022/05/02 07:21:20;;;;;;;0.20;0.20;;;;;;;24.24;31.30;99816.94;6220945;23;20004;-71
2022/05/02 07:24:19;;;;;;;0.10;0.10;;;;;;;24.27;30.69;99821.66;6220843;23;20061;-71
2022/05/02 07:27:26;;;;;;;0.10;0.10;;;;;;;25.17;31.20;99818.09;6193909;23;20008;-71
2022/05/02 07:29:58;;;;;;;0.10;0.10;;;;;;;25.13;30.29;99818.22;6165397;23;20088;-71
2022/05/02 07:32:24;;;;;;;0.10;0.10;;;;;;;25.00;30.32;99815.50;6216448;23;20016;-73
2022/05/02 07:34:55;;;;;;;0.10;0.10;;;;;;;24.92;30.89;99819.88;6216039;23;20384;-73
2022/05/02 07:37:24;;;;;;;0.10;0.10;;;;;;;25.05;30.55;99817.72;6215781;23;20015;-73
2022/05/02 07:39:51;;;;;;;0.10;0.10;;;;;;;26.07;29.83;99816.50;6215664;23;20016;-71
2022/05/02 07:42:18;;;;;;;0.10;0.10;;;;;;;26.52;28.99;99814.78;6216195;23;20017;-72
2022/05/02 07:44:48;;;;;;;0.10;0.10;;;;;;;26.76;27.96;99816.91;6215448;23;20445;-71
2022/05/02 07:47:15;;;;;;;0.10;0.10;;;;;;;25.99;28.67;99820.16;6215689;23;20009;-72
2022/05/02 07:49:47;;;;;;;0.10;0.10;;;;;;;24.81;29.65;99808.16;6215300;23;20013;-71
2022/05/02 07:52:19;;;;;;;0.10;0.10;;;;;;;24.51;30.21;99819.13;6215849;23;20421;-72
2022/05/02 07:54:47;;;;;;;0.10;0.10;;;;;;;24.03;32.19;99812.84;6215357;23;20035;-72
2022/05/02 07:57:14;;;;;;;0.10;0.10;;;;;;;23.08;33.57;99823.56;6215137;23;20019;-72
2022/05/02 07:59:41;;;;;;;0.20;0.20;;;;;;;22.73;33.22;99825.50;6215435;23;20000;-72
2022/05/02 08:02:07;;;;;;;0.10;0.10;;;;;;;21.93;34.56;99820.63;6215035;23;20028;-74
2022/05/02 08:04:40;;;;;;;0.10;0.10;;;;;;;21.83;34.67;99821.75;6215825;23;20091;-73
2022/05/02 08:07:12;;;;;;;0.10;0.10;;;;;;;21.77;35.56;99819.91;6215389;23;20019;-75
2022/05/02 08:10:02;;;;;;;0.20;0.20;;;;;;;21.81;35.64;99823.44;6215784;23;20019;-74
2022/05/02 08:12:39;;;;;;;0.10;0.10;;;;;;;21.01;37.21;99803.34;6215023;23;20329;-75
2022/05/02 08:15:13;;;;;;;0.20;0.20;;;;;;;21.21;36.39;99826.69;6215635;23;20369;-75
2022/05/02 08:17:42;;;;;;;0.20;0.20;;;;;;;21.63;37.29;99802.09;6215954;23;20096;-75
2022/05/02 08:20:35;;;;;;;0.10;0.10;;;;;;;21.83;35.24;99833.06;6215125;23;20011;-70
2022/05/02 08:29:03;;;;;;;0.10;0.10;;;;;;;22.93;32.83;99822.44;6216701;23;20452;-69
2022/05/02 08:31:35;;;;;;;0.10;0.10;;;;;;;23.11;32.85;99830.34;6214518;23;20016;-70
2022/05/02 08:34:39;;;;;;;0.10;0.10;;;;;;;24.09;31.73;99827.25;6215513;23;20433;-70
2022/05/02 08:37:23;;;;;;;;;;;;;;;25.09;30.30;99823.31;6071455;23;20007;-69
2022/05/02 08:40:07;;;;;;;;;;;;;;;25.03;29.25;99830.81;6071468;23;19909;-69
2022/05/02 08:43:09;;;;;;;0.10;0.10;;;;;;;24.36;30.47;99832.34;6172274;23;19912;-69
2022/05/02 08:45:35;;;;;;;0.15;0.15;;;;;;;23.12;32.32;99840.47;6214975;23;20032;-71
2022/05/02 08:48:16;;;;;;;0.10;0.10;;;;;;;22.95;32.40;99834.13;6215129;23;20051;-69
2022/05/02 08:51:09;;;;;;;0.10;0.10;;;;;;;24.27;30.94;99827.34;6215217;23;20430;-70
2022/05/02 08:53:53;;;;;;;0.10;0.10;;;;;;;25.56;28.98;99828.53;6214918;23;20004;-70
2022/05/02 08:56:32;;;;;;;0.10;0.10;;;;;;;26.29;27.77;99826.91;6214785;23;20015;-70
2022/05/02 08:59:16;;;;;;;0.10;0.10;;;;;;;24.86;29.76;99820.97;6215093;23;20368;-70
2022/05/02 09:02:06;;;;;;;0.10;0.10;;;;;;;25.27;28.88;99829.00;6215449;23;20067;-70
2022/05/02 09:04:50;;;;;;;0.10;0.10;;;;;;;24.90;29.64;99828.13;6214954;23;20009;-70
2022/05/02 09:07:34;;;;;;;0.10;0.10;;;;;;;24.49;29.62;99827.31;6214779;23;20079;-69
2022/05/02 09:10:06;;;;;;;0.10;0.10;;;;;;;23.36;31.01;99833.13;6215493;23;20008;-69
2022/05/02 09:13:09;;;;;;;0.10;0.10;;;;;;;23.43;31.41;99827.19;6214441;23;20031;-69
2022/05/02 09:15:54;;;;;;;0.10;0.10;;;;;;;23.32;31.57;99798.41;6215195;23;20008;-69
2022/05/02 09:18:47;;;;;;;0.10;0.10;;;;;;;23.61;31.15;99825.78;6214956;23;20009;-70
2022/05/02 09:21:28;;;;;;;0.10;0.10;;;;;;;24.68;30.10;99816.03;6214871;23;20035;-70
2022/05/02 09:24:21;;;;;;;0.20;0.20;;;;;;;23.83;30.41;99812.41;6214472;23;20060;-70
2022/05/02 09:27:25;;;;;;;0.10;0.10;;;;;;;25.12;29.28;99810.16;6214917;23;20360;-71
2022/05/02 09:30:04;;;;;;;;;;;;;;;25.50;28.44;99810.50;6191545;23;20013;-70
2022/05/02 09:32:30;;;;;;;0.10;0.10;;;;;;;25.58;29.05;99811.00;6215317;23;20198;-70
2022/05/02 09:35:03;;;;;;;0.10;0.10;;;;;;;25.61;29.15;99805.13;6214858;23;20063;-70
2022/05/02 09:37:40;;;;;;;0.10;0.10;;;;;;;25.77;28.53;99803.25;6214350;23;20464;-69
2022/05/02 09:40:15;;;;;;;0.10;0.10;;;;;;;25.51;28.89;99797.06;6214206;23;20004;-70
2022/05/02 09:42:59;;;;;;;0.10;0.10;;;;;;;25.20;29.48;99800.84;6215642;23;20406;-70
2022/05/02 09:51:57;;;;;;;0.10;0.10;;;;;;;24.88;30.95;99787.19;6216173;23;20005;-69
2022/05/02 09:57:17;;;;;;;0.10;0.10;;;;;;;24.12;32.81;99786.53;6216009;23;20020;-70
2022/05/02 10:02:44;;;;;;;0.10;0.10;;;;;;;23.50;32.70;99775.84;6215523;23;20016;-70
2022/05/02 10:05:15;;;;;;;0.10;0.10;;;;;;;23.79;32.22;99783.34;6214599;23;20008;-70
2022/05/02 10:07:52;;;;;;;0.10;0.10;;;;;;;25.30;30.38;99770.31;6213895;23;20063;-70
2022/05/02 10:10:33;;;;;;;0.10;0.10;;;;;;;25.98;29.06;99773.75;6214625;23;20024;-69
2022/05/02 10:13:10;;;;;;;0.10;0.10;;;;;;;26.33;28.63;99781.91;6214855;23;20019;-70
2022/05/02 10:15:47;;;;;;;0.10;0.10;;;;;;;26.62;28.12;99773.53;6214396;23;20031;-69
2022/05/02 10:18:16;;;;;;;0.10;0.10;;;;;;;26.21;29.05;99780.84;6214699;23;20012;-69
2022/05/02 10:21:02;;;;;;;0.10;0.10;;;;;;;26.56;28.35;99772.63;6214222;23;20426;-69
2022/05/02 10:23:46;;;;;;;0.10;0.10;;;;;;;26.55;28.19;99775.97;6139647;23;20004;-69
2022/05/02 10:26:20;;;;;;;0.10;0.10;;;;;;;26.31;28.63;99768.13;6216211;23;20020;-69
2022/05/02 10:29:34;;;;;;;0.10;0.10;;;;;;;27.14;28.19;99771.34;6216155;23;20008;-70
2022/05/02 10:32:04;;;;;;;0.10;0.10;;;;;;;26.70;27.72;99767.50;6203409;23;20445;-70
2022/05/02 10:34:33;;;;;;;0.10;0.10;;;;;;;26.52;27.98;99771.22;6216264;23;20011;-69
2022/05/02 10:37:03;;;;;;;0.10;0.10;;;;;;;27.09;27.70;99734.91;6216152;23;20001;-70
2022/05/02 10:39:50;;;;;;;0.10;0.10;;;;;;;27.17;27.87;99754.53;6216257;23;20052;-70
2022/05/02 10:42:25;;;;;;;0.10;0.10;;;;;;;26.79;28.54;99761.72;6216998;23;20080;-70
2022/05/02 10:45:09;;;;;;;0.10;0.10;;;;;;;25.68;31.04;99754.81;6216095;23;20005;-69
2022/05/02 10:47:53;;;;;;;0.10;0.10;;;;;;;25.27;31.41;99762.75;6217485;23;20084;-70
2022/05/02 10:50:30;;;;;;;0.13;0.13;;;;;;;24.96;31.55;99751.44;6216270;23;20004;-71
2022/05/02 10:53:09;;;;;;;0.10;0.10;;;;;;;25.00;32.25;99738.66;6216481;23;20032;-71
2022/05/02 10:55:45;;;;;;;0.10;0.10;;;;;;;26.03;30.60;99750.31;6216190;23;20012;-70
2022/05/02 10:58:11;;;;;;;0.10;0.10;;;;;;;25.87;31.24;99739.28;6216818;23;20067;-70
2022/05/02 11:01:02;;;;;;;0.10;0.10;;;;;;;25.99;31.46;99743.97;6216158;23;20042;-70
2022/05/02 11:03:42;;;;;;;0.10;0.10;;;;;;;25.77;31.50;99751.94;6191276;23;20009;-70
2022/05/02 11:06:10;;;;;;;0.10;0.10;;;;;;;25.04;31.53;99747.84;6216102;23;20000;-70
2022/05/02 11:08:47;;;;;;;0.10;0.10;;;;;;;25.02;32.19;99750.34;6216796;23;20005;-70
2022/05/02 11:11:42;;;;;;;0.10;0.10;;;;;;;24.39;33.96;99743.25;6217980;23;20008;-70
2022/05/02 11:14:40;;;;;;;0.10;0.10;;;;;;;24.20;33.86;99718.84;6170109;23;20321;-70
2022/05/02 11:17:14;;;;;;;0.10;0.10;;;;;;;23.98;33.92;99747.31;6214654;23;20004;-70
2022/05/02 11:22:41;;;;;;;0.10;0.10;;;;;;;24.48;33.06;99751.03;6217261;23;20020;-70
2022/05/02 11:25:17;;;;;;;0.10;0.10;;;;;;;24.18;34.14;99741.22;6216196;23;20013;-69
2022/05/02 11:27:55;;;;;;;0.10;0.10;;;;;;;24.64;33.11;99747.13;6215149;23;20017;-71
2022/05/02 11:30:27;;;;;;;0.10;0.10;;;;;;;24.91;32.98;99732.94;6215069;23;20342;-70
2022/05/02 11:33:11;;;;;;;0.10;0.10;;;;;;;24.60;33.40;99747.25;6216254;23;20186;-69
2022/05/02 11:35:44;;;;;;;0.10;0.10;;;;;;;23.75;34.61;99740.84;6216720;23;20005;-69
2022/05/02 11:38:24;;;;;;;0.10;0.10;;;;;;;24.75;33.40;99744.63;6215664;23;20008;-69
2022/05/02 11:41:11;;;;;;;0.20;0.20;;;;;;;24.53;33.59;99736.97;6216143;23;20004;-70
2022/05/02 11:43:38;;;;;;;0.10;0.10;;;;;;;25.52;32.21;99728.25;6215715;23;20504;-70
2022/05/02 11:46:18;;;;;;;0.10;0.10;;;;;;;24.71;32.86;99727.69;6215797;23;20082;-69
2022/05/02 11:49:02;;;;;;;0.10;0.10;;;;;;;25.22;32.37;99734.91;6215713;23;20008;-70
2022/05/02 11:51:46;;;;;;;0.10;0.10;;;;;;;25.05;32.44;99737.25;6216610;23;20437;-70
2022/05/02 11:54:28;;;;;;;0.10;0.10;;;;;;;24.54;33.30;99726.38;6215670;23;20119;-68
2022/05/02 11:57:20;;;;;;;0.10;0.10;;;;;;;24.61;33.44;99728.13;6216220;23;20016;-68
2022/05/02 11:59:55;;;;;;;0.10;0.10;;;;;;;24.77;33.13;99739.25;6195874;23;20013;-70
2022/05/02 12:02:34;;;;;;;0.10;0.10;;;;;;;24.75;33.00;99730.41;6215306;23;20063;-70
2022/05/02 12:05:25;;;;;;;0.10;0.10;;;;;;;25.15;33.22;99732.38;6215655;23;20009;-71
2022/05/02 12:08:06;;;;;;;0.10;0.10;;;;;;;24.31;35.26;99730.56;6201197;23;20147;-70
2022/05/02 12:10:36;;;;;;;0.10;0.10;;;;;;;24.39;35.13;99731.06;6215559;23;20009;-70
2022/05/02 12:13:03;;;;;;;0.10;0.10;;;;;;;24.28;35.04;99742.84;6215293;23;20091;-69
2022/05/02 12:15:29;;;;;;;0.10;0.10;;;;;;;23.90;35.46;99729.72;6215367;23;20016;-69
2022/05/02 12:17:56;;;;;;;0.10;0.10;;;;;;;24.45;34.72;99732.03;6215250;23;20448;-69
2022/05/02 12:20:26;;;;;;;0.10;0.10;;;;;;;24.20;35.79;99738.72;6215095;23;20477;-68
2022/05/02 12:23:00;;;;;;;0.10;0.10;;;;;;;23.61;35.39;99734.91;6215191;23;20426;-69
2022/05/02 12:25:28;;;;;;;0.10;0.10;;;;;;;23.57;34.75;99728.56;6216820;23;20046;-71
2022/05/02 12:27:55;;;;;;;0.10;0.10;;;;;;;24.51;34.21;99738.72;6215338;23;20012;-69
2022/05/02 12:30:21;;;;;;;0.10;0.10;;;;;;;24.52;34.14;99743.94;6214781;23;20017;-69
2022/05/02 12:32:49;;;;;;;0.10;0.10;;;;;;;23.79;34.62;99727.31;6215549;23;20005;-69
2022/05/02 12:35:19;;;;;;;0.10;0.10;;;;;;;24.58;33.93;99744.09;6215305;23;20066;-69